createdAt,value
2019-03-01T00:02:13.971Z,45.00
2019-03-01T00:05:31.714Z,47.73
2019-03-01T00:08:10.502Z,47.33
2019-03-01T00:10:52.807Z,46.90
2019-03-01T00:14:06.869Z,45.23
2019-03-01T00:17:09.457Z,44.70
2019-03-01T00:19:56.758Z,43.80
2019-03-01T00:22:52.422Z,43.37
2019-03-01T00:26:08.677Z,43.47
2019-03-01T00:29:11.758Z,43.20
2019-03-01T00:32:25.979Z,43.50
2019-03-01T00:35:30.232Z,42.27
2019-03-01T00:38:38.779Z,43.30
2019-03-01T00:41:17.771Z,44.93
2019-03-01T00:44:18.173Z,45.83
2019-03-01T00:46:46.166Z,45.10
2019-03-01T00:49:14.074Z,43.90
2019-03-01T00:51:42.007Z,45.10
2019-03-01T00:54:10.066Z,44.08
2019-03-01T00:56:37.913Z,44.03
2019-03-01T00:59:06.472Z,42.83
2019-03-01T01:01:34.507Z,44.30
2019-03-01T01:04:02.385Z,45.57
2019-03-01T01:06:30.913Z,45.40
2019-03-01T01:08:58.757Z,44.33
2019-03-01T01:11:26.563Z,43.78
2019-03-01T01:13:55.010Z,43.97
2019-03-01T01:16:22.918Z,43.33
2019-03-01T01:18:50.805Z,45.03
2019-03-01T01:21:18.704Z,43.90
2019-03-01T01:23:46.652Z,44.00
2019-03-01T01:26:14.692Z,43.23
2019-03-01T01:28:42.626Z,41.53
2019-03-01T01:31:10.563Z,41.70
2019-03-01T01:33:38.354Z,42.90
2019-03-01T01:36:06.365Z,41.73
2019-03-01T01:38:34.423Z,41.37
2019-03-01T01:41:02.330Z,44.47
2019-03-01T01:43:30.893Z,41.87
2019-03-01T01:45:58.927Z,43.37
2019-03-01T01:48:26.809Z,41.87
2019-03-01T01:50:54.995Z,42.13
2019-03-01T01:53:22.872Z,43.97
2019-03-01T01:55:50.781Z,42.93
2019-03-01T01:58:18.667Z,43.17
2019-03-01T02:00:46.678Z,42.80
2019-03-01T02:03:14.651Z,43.93
2019-03-01T02:05:43.013Z,44.00
2019-03-01T02:08:10.954Z,45.23
2019-03-01T02:10:39.155Z,43.43
2019-03-01T02:13:06.994Z,43.70
2019-03-01T02:15:34.887Z,45.57
2019-03-01T02:18:03.222Z,44.33
2019-03-01T02:20:31.208Z,42.17
2019-03-01T02:22:59.257Z,43.35
2019-03-01T02:25:27.646Z,42.25
2019-03-01T02:27:55.555Z,43.77
2019-03-01T02:30:24.972Z,42.77
2019-03-01T02:32:52.865Z,43.07
2019-03-01T02:35:22.713Z,41.73
2019-03-01T02:37:50.752Z,41.92
2019-03-01T02:40:18.806Z,42.88
2019-03-01T02:42:46.863Z,43.10
2019-03-01T02:45:16.543Z,42.00
2019-03-01T02:47:44.487Z,43.67
2019-03-01T02:50:13.308Z,42.87
2019-03-01T02:52:41.304Z,40.10
2019-03-01T02:55:10.995Z,41.93
2019-03-01T02:57:38.917Z,41.47
2019-03-01T03:00:10.225Z,41.23
2019-03-01T03:02:44.181Z,40.77
2019-03-01T03:05:12.167Z,40.10
2019-03-01T03:08:11.631Z,41.07
2019-03-01T03:10:39.486Z,37.80
2019-03-01T03:13:08.996Z,38.07
2019-03-01T03:15:41.953Z,39.70
2019-03-01T03:18:09.873Z,38.05
2019-03-01T03:20:38.247Z,37.77
2019-03-01T03:23:06.395Z,38.80
2019-03-01T03:25:34.255Z,37.27
2019-03-01T03:28:02.174Z,37.15
2019-03-01T03:30:30.151Z,37.63
2019-03-01T03:32:58.168Z,39.85
2019-03-01T03:35:26.352Z,38.85
2019-03-01T03:37:54.276Z,36.45
2019-03-01T03:40:22.231Z,38.67
2019-03-01T03:42:50.230Z,39.05
2019-03-01T03:45:18.247Z,39.70
2019-03-01T03:47:46.298Z,38.30
2019-03-01T03:50:14.370Z,38.15
2019-03-01T03:52:42.352Z,39.85
2019-03-01T03:55:11.557Z,40.70
2019-03-01T03:57:39.556Z,43.30
2019-03-01T04:00:11.627Z,43.40
2019-03-01T04:02:39.649Z,40.92
2019-03-01T04:05:07.651Z,42.70
2019-03-01T04:07:36.084Z,43.38
2019-03-01T04:10:04.724Z,52.63
2019-03-01T04:12:32.652Z,51.83
2019-03-01T04:15:00.485Z,54.40
2019-03-01T04:17:28.568Z,51.65
2019-03-01T04:19:56.400Z,52.43
2019-03-01T04:22:24.157Z,49.23
2019-03-01T04:24:51.973Z,47.35
2019-03-01T04:27:19.725Z,48.53
2019-03-01T04:29:47.730Z,46.17
2019-03-01T04:32:16.288Z,46.73
2019-03-01T04:34:44.101Z,44.90
2019-03-01T04:37:11.878Z,46.43
2019-03-01T04:39:39.675Z,50.20
2019-03-01T04:42:07.444Z,48.60
2019-03-01T04:44:35.289Z,48.45
2019-03-01T04:47:03.260Z,49.70
2019-03-01T04:49:31.218Z,45.40
2019-03-01T04:51:59.160Z,44.07
2019-03-01T04:54:27.090Z,40.55
2019-03-01T04:56:54.857Z,41.28
2019-03-01T04:59:22.757Z,40.60
2019-03-01T05:01:50.524Z,42.17
2019-03-01T05:04:18.357Z,41.10
2019-03-01T05:06:52.564Z,40.10
2019-03-01T05:09:20.401Z,40.37
2019-03-01T05:11:48.180Z,39.55
2019-03-01T05:14:16.081Z,40.75
2019-03-01T05:16:43.983Z,39.85
2019-03-01T05:19:11.796Z,39.73
2019-03-01T05:21:39.585Z,40.12
2019-03-01T05:24:07.431Z,40.38
2019-03-01T05:26:35.221Z,39.15
2019-03-01T05:29:03.938Z,35.88
2019-03-01T05:31:32.293Z,35.63
2019-03-01T05:34:00.120Z,35.92
2019-03-01T05:36:27.906Z,35.27
2019-03-01T05:38:55.821Z,37.37
2019-03-01T05:41:23.708Z,35.00
2019-03-01T05:43:53.433Z,37.80
2019-03-01T05:46:21.272Z,36.77
2019-03-01T05:48:49.182Z,35.63
2019-03-01T05:51:21.058Z,35.45
2019-03-01T05:53:49.402Z,35.68
2019-03-01T05:56:17.196Z,36.60
2019-03-01T05:58:47.594Z,36.75
2019-03-01T06:01:55.194Z,36.83
2019-03-01T06:04:32.872Z,35.35
2019-03-01T06:07:17.467Z,35.38
2019-03-01T06:10:18.924Z,36.93
2019-03-01T06:13:09.520Z,36.60
2019-03-01T06:16:04.625Z,37.78
2019-03-01T06:19:05.701Z,35.90
2019-03-01T06:22:16.738Z,36.67
2019-03-01T06:24:55.683Z,35.13
2019-03-01T06:27:58.632Z,38.83
2019-03-01T06:31:01.890Z,38.45
2019-03-01T06:34:02.001Z,40.73
2019-03-01T06:36:59.163Z,40.90
2019-03-01T06:40:41.430Z,35.80
2019-03-01T06:43:22.454Z,35.30
2019-03-01T06:46:29.759Z,35.20
2019-03-01T06:49:16.974Z,35.68
2019-03-01T06:51:44.816Z,33.93
2019-03-01T06:54:12.847Z,36.58
2019-03-01T06:56:40.688Z,34.67
2019-03-01T06:59:08.453Z,34.92
2019-03-01T07:01:44.098Z,33.78
2019-03-01T07:04:15.742Z,31.87
2019-03-01T07:06:43.682Z,33.98
2019-03-01T07:09:11.685Z,32.38
2019-03-01T07:11:39.644Z,33.73
2019-03-01T07:14:07.428Z,33.85
2019-03-01T07:16:36.073Z,31.65
2019-03-01T07:19:04.067Z,34.00
2019-03-01T07:21:32.011Z,32.42
2019-03-01T07:23:59.804Z,32.17
2019-03-01T07:26:27.621Z,33.17
2019-03-01T07:28:55.660Z,30.57
2019-03-01T07:31:23.613Z,32.63
2019-03-01T07:33:51.431Z,32.60
2019-03-01T07:36:19.287Z,32.42
2019-03-01T07:38:47.203Z,32.20
2019-03-01T07:41:15.760Z,32.57
2019-03-01T07:43:43.607Z,33.70
2019-03-01T07:46:11.490Z,31.40
2019-03-01T07:48:39.336Z,31.23
2019-03-01T07:51:07.238Z,30.77
2019-03-01T07:53:41.748Z,32.58
2019-03-01T07:56:06.888Z,33.05
2019-03-01T07:58:34.727Z,31.82
2019-03-01T08:01:02.816Z,34.53
2019-03-01T08:03:30.718Z,31.77
2019-03-01T08:05:58.600Z,32.23
2019-03-01T08:08:26.461Z,33.83
2019-03-01T08:10:56.567Z,32.65
2019-03-01T08:13:27.022Z,32.33
2019-03-01T08:15:54.973Z,32.03
2019-03-01T08:18:22.945Z,31.62
2019-03-01T08:20:50.744Z,33.57
2019-03-01T08:23:18.800Z,32.98
2019-03-01T08:25:46.582Z,33.33
2019-03-01T08:28:14.522Z,36.00
2019-03-01T08:30:45.760Z,34.73
2019-03-01T08:33:13.243Z,34.13
2019-03-01T08:35:41.024Z,34.48
2019-03-01T08:38:08.969Z,33.75
2019-03-01T08:40:37.325Z,36.35
2019-03-01T08:43:11.750Z,37.83
2019-03-01T08:45:35.219Z,35.03
2019-03-01T08:48:03.197Z,38.30
2019-03-01T08:50:31.163Z,39.10
2019-03-01T08:53:03.257Z,37.53
2019-03-01T08:55:31.842Z,39.73
2019-03-01T08:58:03.430Z,39.63
2019-03-01T09:00:31.003Z,40.33
2019-03-01T09:03:02.608Z,38.17
2019-03-01T09:05:30.509Z,37.90
2019-03-01T09:07:58.543Z,37.85
2019-03-01T09:10:29.193Z,38.67
2019-03-01T09:12:56.120Z,39.13
2019-03-01T09:15:24.089Z,38.17
2019-03-01T09:17:51.910Z,39.40
2019-03-01T09:20:19.660Z,38.90
2019-03-01T09:22:47.896Z,36.83
2019-03-01T09:25:16.558Z,36.68
2019-03-01T09:27:44.403Z,37.03
2019-03-01T09:30:16.033Z,39.50
2019-03-01T09:32:43.979Z,37.73
2019-03-01T09:35:31.379Z,38.40
2019-03-01T09:37:59.604Z,35.98
2019-03-01T09:40:28.873Z,37.83
2019-03-01T09:42:57.394Z,37.40
2019-03-01T09:45:25.335Z,37.13
2019-03-01T09:47:53.299Z,37.03
2019-03-01T09:50:21.343Z,36.53
2019-03-01T09:52:49.141Z,38.15
2019-03-01T09:55:17.255Z,37.27
2019-03-01T09:57:45.219Z,36.67
2019-03-01T10:00:13.914Z,35.87
2019-03-01T10:02:41.805Z,37.27
2019-03-01T10:05:11.316Z,21.87
2019-03-01T10:07:39.203Z,22.62
2019-03-01T10:10:09.341Z,25.72
2019-03-01T10:12:37.106Z,27.97
2019-03-01T10:15:06.255Z,28.23
2019-03-01T10:17:34.846Z,27.83
2019-03-01T10:20:03.375Z,28.07
2019-03-01T10:22:31.312Z,29.60
2019-03-01T10:24:59.248Z,30.17
2019-03-01T10:27:27.037Z,31.13
2019-03-01T10:29:54.930Z,28.97
2019-03-01T10:32:22.748Z,30.73
2019-03-01T10:34:50.583Z,28.80
2019-03-01T10:37:18.434Z,30.17
2019-03-01T10:39:52.800Z,29.37
2019-03-01T10:42:16.046Z,32.83
2019-03-01T10:44:43.995Z,28.23
2019-03-01T10:47:11.853Z,29.63
2019-03-01T10:49:39.784Z,27.60
2019-03-01T10:52:07.652Z,29.67
2019-03-01T10:54:35.536Z,30.87
2019-03-01T10:57:03.488Z,29.73
2019-03-01T10:59:31.337Z,30.43
2019-03-01T11:01:59.186Z,29.47
2019-03-01T11:04:27.132Z,31.60
2019-03-01T11:06:55.898Z,31.17
2019-03-01T11:09:23.719Z,35.07
2019-03-01T11:11:51.664Z,35.83
2019-03-01T11:14:19.608Z,36.20
2019-03-01T11:16:47.467Z,36.93
2019-03-01T11:19:15.283Z,37.20
2019-03-01T11:21:43.953Z,36.70
2019-03-01T11:24:11.750Z,39.80
2019-03-01T11:26:39.610Z,39.00
2019-03-01T11:29:07.474Z,38.53
2019-03-01T11:31:35.672Z,39.60
2019-03-01T11:34:03.665Z,39.30
2019-03-01T11:36:31.464Z,39.73
2019-03-01T11:38:59.239Z,40.03
2019-03-01T11:41:27.168Z,40.33
2019-03-01T11:43:54.924Z,41.90
2019-03-01T11:46:23.001Z,39.63
2019-03-01T11:48:51.445Z,41.10
2019-03-01T11:51:25.439Z,37.80
2019-03-01T11:53:53.268Z,38.93
2019-03-01T11:56:21.157Z,44.27
2019-03-01T11:58:49.013Z,47.40
2019-03-01T12:01:17.590Z,45.60
2019-03-01T12:03:45.603Z,35.80
2019-03-01T12:06:13.514Z,35.57
2019-03-01T12:08:41.391Z,35.27
2019-03-01T12:11:10.190Z,33.53
2019-03-01T12:13:37.986Z,33.73
2019-03-01T12:16:05.913Z,35.20
2019-03-01T12:18:33.783Z,34.53
2019-03-01T12:21:01.592Z,35.47
2019-03-01T12:23:29.348Z,33.60
2019-03-01T12:25:57.212Z,35.33
2019-03-01T12:28:24.992Z,35.50
2019-03-01T12:30:52.941Z,33.53
2019-03-01T12:33:21.792Z,31.97
2019-03-01T12:35:50.497Z,32.20
2019-03-01T12:38:18.288Z,30.77
2019-03-01T12:40:46.299Z,31.07
2019-03-01T12:43:14.291Z,32.35
2019-03-01T12:45:42.703Z,31.42
2019-03-01T12:48:11.373Z,30.87
2019-03-01T12:50:39.190Z,33.90
2019-03-01T12:53:06.984Z,33.67
2019-03-01T12:55:34.964Z,33.13
2019-03-01T12:58:02.853Z,33.18
2019-03-01T13:00:30.937Z,32.50
2019-03-01T13:02:58.783Z,33.63
2019-03-01T13:05:29.118Z,34.37
2019-03-01T13:07:56.397Z,32.80
2019-03-01T13:10:25.824Z,32.23
2019-03-01T13:12:54.651Z,33.33
2019-03-01T13:15:22.853Z,32.60
2019-03-01T13:17:50.889Z,32.13
2019-03-01T13:20:18.737Z,32.58
2019-03-01T13:22:46.746Z,33.13
2019-03-01T13:25:15.745Z,33.10
2019-03-01T13:27:44.286Z,32.10
2019-03-01T13:30:17.018Z,33.38
2019-03-01T13:32:45.106Z,34.08
2019-03-01T13:35:13.479Z,35.60
2019-03-01T13:37:41.541Z,34.90
2019-03-01T13:40:11.780Z,33.67
2019-03-01T13:42:39.727Z,34.17
2019-03-01T13:45:11.858Z,33.88
2019-03-01T13:47:40.667Z,34.40
2019-03-01T13:50:09.908Z,35.52
2019-03-01T13:52:37.862Z,34.00
2019-03-01T13:55:06.140Z,33.67
2019-03-01T13:57:37.331Z,34.15
2019-03-01T14:00:06.111Z,34.63
2019-03-01T14:02:34.028Z,37.48
2019-03-01T14:05:01.901Z,34.50
2019-03-01T14:07:29.866Z,35.03
2019-03-01T14:10:00.880Z,33.33
2019-03-01T14:12:27.360Z,32.95
2019-03-01T14:14:55.166Z,33.15
2019-03-01T14:17:24.600Z,32.05
2019-03-01T14:19:53.234Z,32.10
2019-03-01T14:22:21.178Z,32.93
2019-03-01T14:24:48.961Z,33.25
2019-03-01T14:27:16.913Z,33.65
2019-03-01T14:29:44.706Z,34.13
2019-03-01T14:32:15.301Z,33.58
2019-03-01T14:34:47.720Z,34.58
2019-03-01T14:37:15.106Z,35.20
2019-03-01T14:39:45.391Z,37.10
2019-03-01T14:42:11.840Z,35.60
2019-03-01T14:44:39.633Z,33.85
2019-03-01T14:47:07.683Z,34.43
2019-03-01T14:49:35.564Z,34.83
2019-03-01T14:52:03.599Z,32.45
2019-03-01T14:54:31.481Z,31.53
2019-03-01T14:57:10.688Z,32.42
2019-03-01T15:00:14.183Z,31.87
2019-03-01T15:03:15.919Z,30.77
2019-03-01T15:05:42.026Z,33.42
2019-03-01T15:08:10.126Z,40.63
2019-03-01T15:10:38.015Z,97.62
2019-03-01T15:13:05.944Z,71.42
2019-03-01T15:15:33.937Z,56.18
2019-03-01T15:18:01.977Z,75.80
2019-03-01T15:20:30.643Z,67.35
2019-03-01T15:22:58.486Z,69.15
2019-03-01T15:25:26.386Z,40.67
2019-03-01T15:27:55.510Z,33.08
2019-03-01T15:30:23.387Z,33.08
2019-03-01T15:32:52.574Z,32.80
2019-03-01T15:35:20.575Z,34.23
2019-03-01T15:37:48.519Z,35.52
2019-03-01T15:40:16.590Z,32.33
2019-03-01T15:42:44.375Z,32.60
2019-03-01T15:45:12.616Z,32.77
2019-03-01T15:47:40.439Z,36.07
2019-03-01T15:50:09.044Z,46.68
2019-03-01T15:52:36.916Z,48.13
2019-03-01T15:55:07.726Z,45.23
2019-03-01T15:57:35.664Z,39.50
2019-03-01T16:00:04.424Z,33.70
2019-03-01T16:02:32.272Z,33.23
2019-03-01T16:05:00.345Z,33.05
2019-03-01T16:07:29.011Z,34.58
2019-03-01T16:10:01.100Z,32.55
2019-03-01T16:12:29.000Z,33.75
2019-03-01T16:15:00.570Z,32.10
2019-03-01T16:17:28.528Z,34.18
2019-03-01T16:19:56.452Z,33.27
2019-03-01T16:22:24.340Z,35.52
2019-03-01T16:24:52.194Z,34.03
2019-03-01T16:27:20.311Z,34.63
2019-03-01T16:29:49.102Z,35.05
2019-03-01T16:32:16.965Z,34.98
2019-03-01T16:34:44.887Z,33.33
2019-03-01T16:37:12.789Z,32.03
2019-03-01T16:39:40.636Z,34.23
2019-03-01T16:42:08.733Z,36.05
2019-03-01T16:44:36.598Z,37.93
2019-03-01T16:47:06.695Z,37.35
2019-03-01T16:49:34.296Z,39.38
2019-03-01T16:52:02.279Z,37.30
2019-03-01T16:54:30.158Z,36.08
2019-03-01T16:56:58.024Z,34.65
2019-03-01T16:59:25.849Z,35.15
2019-03-01T17:01:53.631Z,35.78
2019-03-01T17:04:32.647Z,36.08
2019-03-01T17:07:01.020Z,37.05
2019-03-01T17:09:28.836Z,34.45
2019-03-01T17:11:56.726Z,38.65
2019-03-01T17:14:24.645Z,37.03
2019-03-01T17:16:52.408Z,37.03
2019-03-01T17:19:23.444Z,38.17
2019-03-01T17:21:51.785Z,39.03
2019-03-01T17:24:19.762Z,37.75
2019-03-01T17:26:47.574Z,38.33
2019-03-01T17:29:15.498Z,38.40
2019-03-01T17:31:43.398Z,38.15
2019-03-01T17:34:11.395Z,36.55
2019-03-01T17:36:40.075Z,38.40
2019-03-01T17:39:08.140Z,42.95
2019-03-01T17:41:36.004Z,40.58
2019-03-01T17:44:08.189Z,41.40
2019-03-01T17:46:35.449Z,41.88
2019-03-01T17:49:03.352Z,39.75
2019-03-01T17:51:31.186Z,42.10
2019-03-01T17:53:59.065Z,50.12
2019-03-01T17:56:27.096Z,52.23
2019-03-01T17:58:55.952Z,58.38
2019-03-01T18:01:23.895Z,56.88
2019-03-01T18:03:51.803Z,60.10
2019-03-01T18:06:22.216Z,61.05
2019-03-01T18:08:50.208Z,56.15
2019-03-01T18:11:18.166Z,48.30
2019-03-01T18:13:46.059Z,45.33
2019-03-01T18:16:13.888Z,44.75
2019-03-01T18:18:42.660Z,43.87
2019-03-01T18:21:13.070Z,49.18
2019-03-01T18:23:40.223Z,42.78
2019-03-01T18:26:08.212Z,42.50
2019-03-01T18:28:36.020Z,42.00
2019-03-01T18:31:04.066Z,41.23
2019-03-01T18:33:31.958Z,45.28
2019-03-01T18:35:59.841Z,40.43
2019-03-01T18:38:31.313Z,41.55
2019-03-01T18:40:57.692Z,37.58
2019-03-01T18:43:25.583Z,40.38
2019-03-01T18:45:54.095Z,39.10
2019-03-01T18:48:21.971Z,44.65
2019-03-01T18:50:49.789Z,60.43
2019-03-01T18:53:18.384Z,58.65
2019-03-01T18:55:46.300Z,67.08
2019-03-01T18:58:14.968Z,57.13
2019-03-01T19:00:43.407Z,47.73
2019-03-01T19:03:11.227Z,43.90
2019-03-01T19:05:40.024Z,41.45
2019-03-01T19:08:11.706Z,40.25
2019-03-01T19:10:40.560Z,39.23
2019-03-01T19:13:08.566Z,43.10
2019-03-01T19:15:36.528Z,43.50
2019-03-01T19:18:04.573Z,44.18
2019-03-01T19:20:32.805Z,63.90
2019-03-01T19:23:00.873Z,63.05
2019-03-01T19:25:28.850Z,157.30
2019-03-01T19:27:57.501Z,136.57
2019-03-01T19:30:25.502Z,78.37
2019-03-01T19:32:53.513Z,119.20
2019-03-01T19:35:28.308Z,89.42
2019-03-01T19:37:51.308Z,98.47
2019-03-01T19:40:19.215Z,64.07
2019-03-01T19:42:47.266Z,44.77
2019-03-01T19:45:15.872Z,41.97
2019-03-01T19:47:43.903Z,42.57
2019-03-01T19:50:14.136Z,41.02
2019-03-01T19:52:43.396Z,41.60
2019-03-01T19:55:12.701Z,42.20
2019-03-01T19:57:40.742Z,55.05
2019-03-01T20:00:12.047Z,58.67
2019-03-01T20:02:40.719Z,62.50
2019-03-01T20:05:10.751Z,58.17
2019-03-01T20:07:39.007Z,47.73
2019-03-01T20:10:08.406Z,44.07
2019-03-01T20:12:40.500Z,41.33
2019-03-01T20:15:11.250Z,46.48
2019-03-01T20:17:44.405Z,36.87
2019-03-01T20:20:11.244Z,45.27
2019-03-01T20:22:39.256Z,52.10
2019-03-01T20:25:09.198Z,47.27
2019-03-01T20:27:39.070Z,46.90
2019-03-01T20:30:11.157Z,47.73
2019-03-01T20:32:39.431Z,46.70
2019-03-01T20:35:09.678Z,47.67
2019-03-01T20:37:39.941Z,47.15
2019-03-01T20:40:09.806Z,49.53
2019-03-01T20:42:37.716Z,47.88
2019-03-01T20:45:09.134Z,48.90
2019-03-01T20:47:37.159Z,50.12
2019-03-01T20:50:05.398Z,49.27
2019-03-01T20:52:34.813Z,48.58
2019-03-01T20:55:03.240Z,46.20
2019-03-01T20:57:31.193Z,44.58
2019-03-01T20:59:59.186Z,44.38
2019-03-01T21:02:27.149Z,44.08
2019-03-01T21:04:55.066Z,44.40
2019-03-01T21:07:22.930Z,42.35
2019-03-01T21:09:50.798Z,40.58
2019-03-01T21:12:18.730Z,43.33
2019-03-01T21:14:46.637Z,47.78
2019-03-01T21:17:16.855Z,45.05
2019-03-01T21:19:44.629Z,48.40
2019-03-01T21:22:12.721Z,48.10
2019-03-01T21:24:42.522Z,49.63
2019-03-01T21:27:10.777Z,48.20
2019-03-01T21:29:38.685Z,46.77
2019-03-01T21:32:06.570Z,47.17
2019-03-01T21:34:34.873Z,46.80
2019-03-01T21:37:04.190Z,43.70
2019-03-01T21:39:32.111Z,45.23
2019-03-01T21:41:59.897Z,43.00
2019-03-01T21:44:27.828Z,41.70
2019-03-01T21:46:55.634Z,43.38
2019-03-01T21:49:23.510Z,45.38
2019-03-01T21:51:51.738Z,43.17
2019-03-01T21:54:21.150Z,48.42
2019-03-01T21:56:55.977Z,48.95
2019-03-01T21:59:18.883Z,50.20
2019-03-01T22:01:46.627Z,49.75
2019-03-01T22:04:14.430Z,53.15
2019-03-01T22:06:42.304Z,59.20
2019-03-01T22:09:11.141Z,57.35
2019-03-01T22:11:38.886Z,56.65
2019-03-01T22:14:07.588Z,52.33
2019-03-01T22:16:39.295Z,52.55
2019-03-01T22:19:07.244Z,48.33
2019-03-01T22:21:35.118Z,49.73
2019-03-01T22:24:03.029Z,46.88
2019-03-01T22:26:30.989Z,46.63
2019-03-01T22:28:58.806Z,47.95
2019-03-01T22:31:26.585Z,49.90
2019-03-01T22:33:55.864Z,46.35
2019-03-01T22:36:24.237Z,48.42
2019-03-01T22:38:52.059Z,49.38
2019-03-01T22:41:19.842Z,49.15
2019-03-01T22:43:47.727Z,55.05
2019-03-01T22:46:15.450Z,57.93
2019-03-01T22:48:47.043Z,58.65
2019-03-01T22:51:14.566Z,65.57
2019-03-01T22:53:43.742Z,68.50
2019-03-01T22:56:12.059Z,66.75
2019-03-01T22:58:40.822Z,63.17
2019-03-01T23:01:22.178Z,56.45
2019-03-01T23:03:58.521Z,53.33
2019-03-01T23:06:26.473Z,51.15
2019-03-01T23:08:54.764Z,48.35
2019-03-01T23:11:22.507Z,41.73
2019-03-01T23:13:52.797Z,43.00
2019-03-01T23:16:23.638Z,43.92
2019-03-01T23:18:56.750Z,48.15
2019-03-01T23:21:21.546Z,48.58
2019-03-01T23:23:50.089Z,50.12
2019-03-01T23:26:18.607Z,50.33
2019-03-01T23:28:47.609Z,47.78
2019-03-01T23:31:15.492Z,47.08
2019-03-01T23:33:43.291Z,48.73
2019-03-01T23:36:11.902Z,47.90
2019-03-01T23:38:40.355Z,45.92
2019-03-01T23:41:11.398Z,45.98
2019-03-01T23:43:38.242Z,46.63
2019-03-01T23:46:06.288Z,48.40
2019-03-01T23:48:34.319Z,48.92
2019-03-01T23:51:02.228Z,52.27
2019-03-01T23:53:30.831Z,54.73
2019-03-01T23:55:59.888Z,53.13
2019-03-01T23:58:27.741Z,61.95
